createdAt,value
2019-05-29T00:01:54.489Z,97.80
2019-05-29T00:04:26.652Z,97.50
2019-05-29T00:06:58.798Z,97.50
2019-05-29T00:09:30.611Z,97.90
2019-05-29T00:12:02.869Z,97.80
2019-05-29T00:14:35.690Z,98.00
2019-05-29T00:17:08.337Z,98.30
2019-05-29T00:19:40.432Z,97.90
2019-05-29T00:22:12.907Z,98.20
2019-05-29T00:24:45.022Z,98.30
2019-05-29T00:27:17.896Z,98.50
2019-05-29T00:29:50.059Z,98.30
2019-05-29T00:32:22.314Z,98.00
2019-05-29T00:34:54.663Z,97.80
2019-05-29T00:37:26.847Z,97.60
2019-05-29T00:39:58.575Z,97.20
2019-05-29T00:42:30.431Z,97.20
2019-05-29T00:45:02.633Z,97.30
2019-05-29T00:47:34.454Z,97.10
2019-05-29T00:50:07.982Z,96.90
2019-05-29T00:52:40.015Z,96.80
2019-05-29T00:55:12.563Z,96.90
2019-05-29T00:57:44.559Z,97.00
2019-05-29T01:00:17.478Z,97.00
2019-05-29T01:02:49.634Z,97.10
2019-05-29T01:05:22.023Z,97.50
2019-05-29T01:07:54.457Z,97.00
2019-05-29T01:10:26.314Z,97.20
2019-05-29T01:12:58.298Z,97.20
2019-05-29T01:15:31.223Z,97.40
2019-05-29T01:18:03.449Z,97.50
2019-05-29T01:20:35.387Z,97.50
2019-05-29T01:23:07.880Z,98.50
2019-05-29T01:25:40.031Z,98.80
2019-05-29T01:28:12.691Z,99.10
2019-05-29T01:30:44.687Z,99.30
2019-05-29T01:33:20.074Z,99.20
2019-05-29T01:35:50.988Z,99.00
2019-05-29T01:38:23.490Z,99.10
2019-05-29T01:40:55.724Z,99.60
2019-05-29T01:43:27.734Z,99.90
2019-05-29T01:46:00.174Z,99.90
2019-05-29T01:48:32.145Z,99.70
2019-05-29T01:51:04.591Z,99.90
2019-05-29T01:53:36.500Z,99.90
2019-05-29T01:56:08.807Z,99.90
2019-05-29T01:58:40.794Z,99.90
2019-05-29T02:01:13.020Z,99.90
2019-05-29T02:03:44.879Z,99.90
2019-05-29T02:06:17.853Z,99.90
2019-05-29T02:08:50.562Z,99.90
2019-05-29T02:11:23.341Z,99.90
2019-05-29T02:13:55.623Z,99.90
2019-05-29T02:16:27.567Z,99.90
2019-05-29T02:18:59.396Z,99.90
2019-05-29T02:21:31.141Z,99.90
2019-05-29T02:24:03.228Z,99.90
2019-05-29T02:26:35.069Z,99.90
2019-05-29T02:29:07.020Z,99.90
2019-05-29T02:31:39.247Z,99.90
2019-05-29T02:34:11.204Z,99.90
2019-05-29T02:36:43.353Z,99.90
2019-05-29T02:39:15.211Z,99.90
2019-05-29T02:41:47.057Z,99.90
2019-05-29T02:44:19.281Z,99.90
2019-05-29T02:46:51.175Z,99.90
2019-05-29T02:49:23.897Z,99.90
2019-05-29T02:51:56.071Z,99.90
2019-05-29T02:54:30.039Z,99.90
2019-05-29T02:57:02.534Z,99.90
2019-05-29T02:59:34.372Z,99.90
2019-05-29T03:02:06.770Z,99.90
2019-05-29T03:04:38.607Z,99.90
2019-05-29T03:07:10.525Z,99.90
2019-05-29T03:09:42.624Z,99.90
2019-05-29T03:12:14.943Z,99.90
2019-05-29T03:14:46.901Z,99.90
2019-05-29T03:17:23.672Z,99.90
2019-05-29T03:19:55.726Z,99.90
2019-05-29T03:22:28.815Z,99.90
2019-05-29T03:25:01.821Z,99.90
2019-05-29T03:27:34.109Z,99.90
2019-05-29T03:30:07.247Z,99.90
2019-05-29T03:32:47.375Z,99.90
2019-05-29T03:35:13.492Z,99.90
2019-05-29T03:37:46.014Z,99.90
2019-05-29T03:40:18.355Z,99.90
2019-05-29T03:42:50.684Z,99.90
2019-05-29T03:45:23.205Z,99.90
2019-05-29T03:47:55.757Z,99.90
2019-05-29T03:50:29.399Z,99.90
2019-05-29T03:53:02.536Z,99.90
2019-05-29T03:55:35.948Z,99.90
2019-05-29T03:58:09.353Z,99.90
2019-05-29T04:00:45.962Z,99.90
2019-05-29T04:03:15.516Z,99.90
2019-05-29T04:05:47.777Z,99.90
2019-05-29T04:08:20.442Z,99.90
2019-05-29T04:10:52.808Z,99.90
2019-05-29T04:13:27.249Z,99.90
2019-05-29T04:16:00.895Z,99.90
2019-05-29T04:18:34.042Z,99.90
2019-05-29T04:21:09.548Z,99.90
2019-05-29T04:23:43.928Z,99.90
2019-05-29T04:26:16.623Z,99.90
2019-05-29T04:28:49.129Z,99.90
2019-05-29T04:31:21.602Z,99.90
2019-05-29T04:33:53.872Z,99.90
2019-05-29T04:36:26.434Z,99.90
2019-05-29T04:38:59.012Z,99.90
2019-05-29T04:41:32.672Z,99.90
2019-05-29T04:44:05.201Z,99.90
2019-05-29T04:46:38.464Z,99.90
2019-05-29T04:49:11.524Z,99.90
2019-05-29T04:51:43.772Z,99.90
2019-05-29T04:54:16.745Z,99.90
2019-05-29T04:56:48.867Z,99.90
2019-05-29T04:59:21.028Z,99.90
2019-05-29T05:01:53.002Z,99.90
2019-05-29T05:04:24.808Z,99.90
2019-05-29T05:06:57.101Z,99.90
2019-05-29T05:09:29.309Z,99.90
2019-05-29T05:12:01.672Z,99.90
2019-05-29T05:14:34.241Z,99.90
2019-05-29T05:17:06.873Z,99.90
2019-05-29T05:19:40.149Z,99.90
2019-05-29T05:22:12.464Z,99.90
2019-05-29T05:24:44.579Z,99.90
2019-05-29T05:27:17.567Z,99.90
2019-05-29T05:29:49.994Z,99.90
2019-05-29T05:32:22.357Z,99.90
2019-05-29T05:34:54.265Z,99.90
2019-05-29T05:37:26.599Z,99.90
2019-05-29T05:39:58.415Z,99.90
2019-05-29T05:42:31.106Z,99.90
2019-05-29T05:45:03.773Z,99.90
2019-05-29T05:47:50.156Z,99.90
2019-05-29T05:50:10.707Z,99.90
2019-05-29T05:52:42.552Z,99.90
2019-05-29T05:55:15.479Z,99.90
2019-05-29T05:57:47.724Z,99.90
2019-05-29T06:00:38.094Z,99.90
2019-05-29T06:03:10.366Z,99.90
2019-05-29T06:05:42.531Z,99.90
2019-05-29T06:08:15.163Z,99.90
2019-05-29T06:10:47.478Z,99.90
2019-05-29T06:13:19.309Z,99.90
2019-05-29T06:15:51.890Z,99.90
2019-05-29T06:18:24.508Z,99.90
2019-05-29T06:20:57.101Z,99.90
2019-05-29T06:23:29.665Z,99.90
2019-05-29T06:26:01.818Z,99.50
2019-05-29T06:28:34.946Z,99.40
2019-05-29T06:31:06.972Z,98.70
2019-05-29T06:33:39.541Z,98.20
2019-05-29T06:36:11.763Z,97.80
2019-05-29T06:38:44.831Z,97.30
2019-05-29T06:41:17.107Z,97.50
2019-05-29T06:43:49.393Z,98.00
2019-05-29T06:46:21.743Z,98.40
2019-05-29T06:49:00.485Z,98.20
2019-05-29T06:51:27.742Z,97.70
2019-05-29T06:53:59.681Z,97.50
2019-05-29T06:56:31.898Z,97.60
2019-05-29T06:59:05.357Z,97.60
2019-05-29T07:01:39.413Z,97.20
2019-05-29T07:04:12.687Z,96.60
2019-05-29T07:06:45.407Z,95.70
2019-05-29T07:09:17.428Z,96.00
2019-05-29T07:11:49.939Z,95.50
2019-05-29T07:14:22.059Z,95.70
2019-05-29T07:16:56.249Z,95.70
2019-05-29T07:19:45.376Z,95.00
2019-05-29T07:22:03.351Z,94.70
2019-05-29T07:24:36.996Z,95.10
2019-05-29T07:27:13.343Z,95.50
2019-05-29T07:29:45.152Z,94.90
2019-05-29T07:32:17.865Z,94.70
2019-05-29T07:35:02.747Z,94.50
2019-05-29T07:37:25.566Z,94.70
2019-05-29T07:39:57.794Z,95.00
2019-05-29T07:42:30.138Z,94.20
2019-05-29T07:45:02.528Z,94.40
2019-05-29T07:47:34.716Z,94.50
2019-05-29T07:50:07.902Z,94.40
2019-05-29T07:52:40.851Z,94.70
2019-05-29T07:55:13.752Z,94.60
2019-05-29T07:57:46.998Z,94.60
2019-05-29T08:00:20.140Z,94.50
2019-05-29T08:02:52.295Z,93.50
2019-05-29T08:05:25.015Z,93.30
2019-05-29T08:07:57.341Z,93.10
2019-05-29T08:10:29.700Z,93.20
2019-05-29T08:13:01.638Z,93.80
2019-05-29T08:15:33.824Z,93.80
2019-05-29T08:18:06.150Z,93.60
2019-05-29T08:20:38.109Z,93.20
2019-05-29T08:23:10.232Z,93.00
2019-05-29T08:25:43.454Z,92.90
2019-05-29T08:28:15.733Z,92.70
2019-05-29T08:30:52.502Z,92.90
2019-05-29T08:33:21.641Z,93.30
2019-05-29T08:35:59.971Z,92.50
2019-05-29T08:38:27.343Z,92.50
2019-05-29T08:41:00.103Z,92.50
2019-05-29T08:43:31.860Z,92.50
2019-05-29T08:46:04.452Z,92.70
2019-05-29T08:48:36.602Z,92.80
2019-05-29T08:51:08.914Z,92.50
2019-05-29T08:53:42.531Z,91.60
2019-05-29T08:56:14.757Z,91.30
2019-05-29T08:58:48.390Z,90.80
2019-05-29T09:01:20.554Z,91.30
2019-05-29T09:03:53.529Z,91.50
2019-05-29T09:06:25.821Z,91.50
2019-05-29T09:08:58.136Z,91.20
2019-05-29T09:11:30.260Z,90.70
2019-05-29T09:14:02.791Z,90.40
2019-05-29T09:16:34.743Z,89.70
2019-05-29T09:19:07.068Z,90.00
2019-05-29T09:21:39.651Z,90.10
2019-05-29T09:24:12.826Z,89.70
2019-05-29T09:26:46.538Z,89.60
2019-05-29T09:29:21.801Z,90.20
2019-05-29T09:31:52.841Z,90.30
2019-05-29T09:34:24.861Z,90.40
2019-05-29T09:36:57.199Z,90.10
2019-05-29T09:39:29.207Z,89.20
2019-05-29T09:42:01.676Z,88.80
2019-05-29T09:44:38.778Z,88.70
2019-05-29T09:47:07.757Z,89.20
2019-05-29T09:49:40.048Z,89.20
2019-05-29T09:52:11.993Z,89.20
2019-05-29T09:54:44.895Z,89.20
2019-05-29T09:57:17.142Z,89.30
2019-05-29T09:59:49.400Z,89.50
2019-05-29T10:02:21.563Z,89.20
2019-05-29T10:04:54.809Z,88.30
2019-05-29T10:07:28.027Z,89.20
2019-05-29T10:10:01.108Z,87.70
2019-05-29T10:12:33.893Z,88.30
2019-05-29T10:15:06.276Z,88.10
2019-05-29T10:17:38.483Z,87.90
2019-05-29T10:20:11.558Z,86.90
2019-05-29T10:22:43.595Z,85.40
2019-05-29T10:25:15.994Z,84.50
2019-05-29T10:27:48.110Z,84.70
2019-05-29T10:30:22.350Z,85.00
2019-05-29T10:32:54.688Z,86.30
2019-05-29T10:35:27.252Z,86.10
2019-05-29T10:37:59.160Z,85.70
2019-05-29T10:40:31.237Z,84.90
2019-05-29T10:43:03.730Z,82.90
2019-05-29T10:45:36.016Z,83.50
2019-05-29T10:48:08.885Z,84.50
2019-05-29T10:50:41.797Z,84.80
2019-05-29T10:53:13.784Z,86.80
2019-05-29T10:55:46.405Z,86.70
2019-05-29T10:58:19.196Z,86.40
2019-05-29T11:00:51.367Z,85.10
2019-05-29T11:03:23.364Z,84.30
2019-05-29T11:05:56.497Z,81.50
2019-05-29T11:08:28.807Z,81.30
2019-05-29T11:11:01.005Z,81.30
2019-05-29T11:13:33.258Z,82.70
2019-05-29T11:16:05.352Z,82.30
2019-05-29T11:18:37.310Z,82.30
2019-05-29T11:21:09.952Z,82.30
2019-05-29T11:23:41.922Z,81.80
2019-05-29T11:26:13.887Z,81.00
2019-05-29T11:28:45.847Z,80.60
2019-05-29T11:31:17.810Z,80.10
2019-05-29T11:33:50.753Z,78.70
2019-05-29T11:36:22.848Z,78.00
2019-05-29T11:38:54.787Z,77.50
2019-05-29T11:41:27.016Z,77.30
2019-05-29T11:43:59.017Z,77.90
2019-05-29T11:46:31.018Z,76.00
2019-05-29T11:49:03.676Z,75.70
2019-05-29T11:51:36.003Z,73.60
2019-05-29T11:54:07.944Z,74.10
2019-05-29T11:56:39.912Z,73.50
2019-05-29T11:59:11.845Z,75.40
2019-05-29T12:01:50.073Z,76.80
2019-05-29T12:04:26.238Z,77.80
2019-05-29T12:06:53.276Z,78.30
2019-05-29T12:09:32.896Z,76.90
2019-05-29T12:12:01.987Z,77.90
2019-05-29T12:14:34.390Z,77.20
2019-05-29T12:17:06.575Z,76.70
2019-05-29T12:19:39.071Z,74.70
2019-05-29T12:22:11.161Z,76.30
2019-05-29T12:24:43.368Z,75.60
2019-05-29T12:27:15.555Z,74.90
2019-05-29T12:29:48.772Z,77.10
2019-05-29T12:32:21.012Z,77.40
2019-05-29T12:34:55.423Z,77.50
2019-05-29T12:37:27.430Z,79.00
2019-05-29T12:39:59.947Z,77.70
2019-05-29T12:42:31.936Z,77.30
2019-05-29T12:45:04.750Z,76.40
2019-05-29T12:47:36.832Z,75.00
2019-05-29T12:50:09.079Z,74.40
2019-05-29T12:52:41.205Z,75.30
2019-05-29T12:55:14.110Z,74.80
2019-05-29T12:57:46.644Z,74.70
2019-05-29T13:00:19.466Z,74.80
2019-05-29T13:02:54.386Z,75.50
2019-05-29T13:05:26.468Z,74.60
2019-05-29T13:07:58.988Z,72.90
2019-05-29T13:10:31.833Z,73.50
2019-05-29T13:13:09.994Z,72.10
2019-05-29T13:15:38.756Z,72.00
2019-05-29T13:18:10.705Z,71.40
2019-05-29T13:20:42.765Z,71.00
2019-05-29T13:23:14.762Z,70.50
2019-05-29T13:25:47.212Z,70.40
2019-05-29T13:28:19.229Z,68.60
2019-05-29T13:30:51.124Z,67.60
2019-05-29T13:33:23.047Z,69.70
2019-05-29T13:35:56.278Z,69.00
2019-05-29T13:38:28.498Z,70.20
2019-05-29T13:41:00.715Z,71.80
2019-05-29T13:43:33.037Z,71.40
2019-05-29T13:46:05.172Z,71.30
2019-05-29T13:48:37.645Z,70.90
2019-05-29T13:51:09.799Z,71.50
2019-05-29T13:53:41.840Z,68.40
2019-05-29T13:56:14.129Z,67.80
2019-05-29T13:58:46.068Z,67.90
2019-05-29T14:01:18.650Z,67.20
2019-05-29T14:03:50.834Z,67.70
2019-05-29T14:06:22.988Z,69.20
2019-05-29T14:08:55.127Z,68.80
2019-05-29T14:11:27.543Z,68.70
2019-05-29T14:14:01.188Z,67.10
2019-05-29T14:16:33.200Z,66.50
2019-05-29T14:19:05.137Z,66.90
2019-05-29T14:21:37.332Z,65.60
2019-05-29T14:24:26.250Z,65.10
2019-05-29T14:26:43.158Z,66.20
2019-05-29T14:29:15.028Z,66.60
2019-05-29T14:31:46.963Z,68.30
2019-05-29T14:34:19.015Z,68.10
2019-05-29T14:36:50.749Z,67.70
2019-05-29T14:39:22.778Z,67.30
2019-05-29T14:41:54.937Z,67.20
2019-05-29T14:44:27.048Z,67.70
2019-05-29T14:46:59.163Z,67.20
2019-05-29T14:49:31.859Z,67.00
2019-05-29T14:52:04.511Z,65.60
2019-05-29T14:54:41.699Z,65.90
2019-05-29T14:57:24.498Z,64.60
2019-05-29T14:59:44.770Z,64.50
2019-05-29T15:02:23.634Z,63.10
2019-05-29T15:04:50.820Z,62.60
2019-05-29T15:07:23.151Z,61.60
2019-05-29T15:09:55.113Z,63.60
2019-05-29T15:12:27.300Z,64.60
2019-05-29T15:14:59.247Z,65.30
2019-05-29T15:17:31.482Z,64.80
2019-05-29T15:20:05.492Z,64.50
2019-05-29T15:22:37.491Z,65.00
2019-05-29T15:25:18.388Z,64.40
2019-05-29T15:27:43.269Z,64.60
2019-05-29T15:30:20.763Z,63.50
2019-05-29T15:32:49.730Z,62.30
2019-05-29T15:35:22.245Z,64.60
2019-05-29T15:37:54.193Z,63.70
2019-05-29T15:40:26.432Z,63.50
2019-05-29T15:42:59.562Z,60.60
2019-05-29T15:45:31.583Z,63.10
2019-05-29T15:48:03.615Z,62.00
2019-05-29T15:50:36.003Z,61.70
2019-05-29T15:53:08.921Z,61.60
2019-05-29T15:55:40.857Z,62.40
2019-05-29T15:58:13.389Z,62.40
2019-05-29T16:00:46.116Z,62.60
2019-05-29T16:03:18.259Z,62.30
2019-05-29T16:05:50.551Z,61.20
2019-05-29T16:08:22.803Z,61.70
2019-05-29T16:10:54.652Z,62.00
2019-05-29T16:13:26.822Z,61.90
2019-05-29T16:15:58.663Z,61.50
2019-05-29T16:18:30.808Z,62.70
2019-05-29T16:21:02.840Z,63.50
2019-05-29T16:23:36.098Z,62.80
2019-05-29T16:26:08.278Z,63.40
2019-05-29T16:28:40.652Z,63.30
2019-05-29T16:31:12.799Z,63.70
2019-05-29T16:33:44.687Z,68.30
2019-05-29T16:36:18.542Z,65.60
2019-05-29T16:38:50.995Z,63.50
2019-05-29T16:41:23.455Z,65.50
2019-05-29T16:43:55.290Z,65.50
2019-05-29T16:46:27.127Z,64.00
2019-05-29T16:48:59.274Z,64.40
2019-05-29T16:51:31.244Z,64.00
2019-05-29T16:54:03.585Z,62.90
2019-05-29T16:56:35.848Z,64.30
2019-05-29T16:59:07.973Z,63.10
2019-05-29T17:01:39.904Z,62.40
2019-05-29T17:04:12.006Z,62.60
2019-05-29T17:06:44.192Z,61.60
2019-05-29T17:09:16.381Z,62.00
2019-05-29T17:11:48.759Z,62.70
2019-05-29T17:14:21.007Z,63.50
2019-05-29T17:16:53.284Z,61.90
2019-05-29T17:19:25.684Z,62.00
2019-05-29T17:21:57.722Z,61.50
2019-05-29T17:24:30.147Z,61.50
2019-05-29T17:27:03.494Z,61.20
2019-05-29T17:29:36.120Z,63.10
2019-05-29T17:32:07.982Z,64.40
2019-05-29T17:34:39.916Z,64.00
2019-05-29T17:37:12.061Z,64.00
2019-05-29T17:39:44.098Z,64.40
2019-05-29T17:42:16.216Z,64.40
2019-05-29T17:44:48.699Z,64.80
2019-05-29T17:47:21.484Z,63.50
2019-05-29T17:49:53.717Z,62.80
2019-05-29T17:52:26.199Z,62.80
2019-05-29T17:54:58.471Z,63.50
2019-05-29T17:57:30.350Z,64.20
2019-05-29T18:00:02.330Z,63.70
2019-05-29T18:02:50.413Z,64.20
2019-05-29T18:05:08.571Z,65.30
2019-05-29T18:07:41.282Z,65.40
2019-05-29T18:10:14.159Z,65.70
2019-05-29T18:12:46.148Z,65.90
2019-05-29T18:15:19.608Z,66.10
2019-05-29T18:17:51.951Z,65.50
2019-05-29T18:20:24.269Z,65.80
2019-05-29T18:22:56.605Z,66.10
2019-05-29T18:25:28.532Z,65.90
2019-05-29T18:28:01.050Z,64.80
2019-05-29T18:30:33.109Z,65.20
2019-05-29T18:33:04.981Z,65.60
2019-05-29T18:35:37.071Z,65.60
2019-05-29T18:38:09.390Z,65.80
2019-05-29T18:40:41.623Z,65.70
2019-05-29T18:43:13.769Z,65.90
2019-05-29T18:45:45.989Z,66.70
2019-05-29T18:48:18.506Z,66.80
2019-05-29T18:50:51.234Z,66.90
2019-05-29T18:53:24.725Z,67.10
2019-05-29T18:55:57.010Z,67.40
2019-05-29T18:58:30.521Z,67.80
2019-05-29T19:01:03.854Z,68.20
2019-05-29T19:03:40.135Z,68.30
2019-05-29T19:06:10.172Z,68.30
2019-05-29T19:08:42.339Z,67.70
2019-05-29T19:11:14.565Z,67.70
2019-05-29T19:13:46.424Z,68.20
2019-05-29T19:16:18.595Z,68.30
2019-05-29T19:18:50.671Z,68.40
2019-05-29T19:21:22.639Z,68.50
2019-05-29T19:23:54.801Z,68.70
2019-05-29T19:26:26.774Z,68.70
2019-05-29T19:28:58.706Z,69.20
2019-05-29T19:31:31.373Z,69.40
2019-05-29T19:34:03.516Z,69.70
2019-05-29T19:36:35.344Z,70.00
2019-05-29T19:39:07.770Z,70.40
2019-05-29T19:41:39.939Z,70.60
2019-05-29T19:44:13.182Z,70.80
2019-05-29T19:46:53.658Z,71.10
2019-05-29T19:49:19.799Z,71.70
2019-05-29T19:51:51.960Z,72.00
2019-05-29T19:54:25.418Z,73.00
2019-05-29T19:56:57.816Z,72.20
2019-05-29T19:59:30.176Z,72.30
2019-05-29T20:02:01.985Z,72.30
2019-05-29T20:04:34.753Z,72.20
2019-05-29T20:07:06.961Z,72.00
2019-05-29T20:09:39.799Z,71.80
2019-05-29T20:12:12.058Z,71.60
2019-05-29T20:14:44.006Z,72.10
2019-05-29T20:17:15.932Z,72.20
2019-05-29T20:19:48.409Z,72.50
2019-05-29T20:22:20.759Z,73.10
2019-05-29T20:24:52.705Z,73.50
2019-05-29T20:27:24.736Z,74.00
2019-05-29T20:29:56.915Z,74.50
2019-05-29T20:32:30.444Z,74.50
2019-05-29T20:35:03.112Z,75.60
2019-05-29T20:37:36.259Z,75.80
2019-05-29T20:40:09.145Z,75.80
2019-05-29T20:42:42.455Z,76.30
2019-05-29T20:45:15.182Z,76.50
2019-05-29T20:47:47.700Z,76.50
2019-05-29T20:50:19.751Z,76.80
2019-05-29T20:52:52.645Z,77.00
2019-05-29T20:55:24.894Z,77.40
2019-05-29T20:57:56.890Z,77.40
2019-05-29T21:00:29.271Z,77.80
2019-05-29T21:03:01.099Z,77.50
2019-05-29T21:05:34.520Z,78.00
2019-05-29T21:08:06.512Z,78.20
2019-05-29T21:10:40.289Z,78.40
2019-05-29T21:13:12.686Z,78.40
2019-05-29T21:15:45.027Z,78.40
2019-05-29T21:18:17.494Z,78.90
2019-05-29T21:20:49.726Z,79.00
2019-05-29T21:23:22.183Z,79.20
2019-05-29T21:25:54.699Z,79.70
2019-05-29T21:28:39.282Z,79.70
2019-05-29T21:31:00.378Z,80.20
2019-05-29T21:33:33.113Z,80.70
2019-05-29T21:36:06.129Z,81.10
2019-05-29T21:38:38.079Z,81.10
2019-05-29T21:41:10.255Z,81.40
2019-05-29T21:43:42.729Z,81.90
2019-05-29T21:46:14.746Z,82.00
2019-05-29T21:48:47.487Z,82.20
2019-05-29T21:51:19.545Z,82.30
2019-05-29T21:53:51.846Z,82.40
2019-05-29T21:56:24.199Z,82.60
2019-05-29T21:59:03.544Z,82.90
2019-05-29T22:01:30.206Z,83.30
2019-05-29T22:04:03.444Z,83.80
2019-05-29T22:06:35.807Z,83.80
2019-05-29T22:09:12.248Z,83.90
2019-05-29T22:11:44.335Z,84.00
2019-05-29T22:14:16.200Z,84.30
2019-05-29T22:16:48.462Z,84.90
2019-05-29T22:19:20.301Z,85.40
2019-05-29T22:21:52.875Z,85.40
2019-05-29T22:24:25.142Z,85.40
2019-05-29T22:26:57.330Z,85.80
2019-05-29T22:29:30.237Z,85.80
2019-05-29T22:32:02.086Z,85.60
2019-05-29T22:34:34.506Z,86.10
2019-05-29T22:37:06.547Z,85.60
2019-05-29T22:39:38.511Z,85.80
2019-05-29T22:42:11.242Z,85.80
2019-05-29T22:44:44.555Z,85.20
2019-05-29T22:47:16.449Z,85.30
2019-05-29T22:49:48.680Z,85.80
2019-05-29T22:52:20.510Z,85.20
2019-05-29T22:54:53.729Z,86.10
2019-05-29T22:57:26.098Z,86.40
2019-05-29T22:59:58.140Z,87.20
2019-05-29T23:02:30.578Z,87.40
2019-05-29T23:05:03.802Z,87.70
2019-05-29T23:07:36.354Z,88.20
2019-05-29T23:10:09.675Z,88.30
2019-05-29T23:12:41.867Z,88.40
2019-05-29T23:15:14.341Z,89.30
2019-05-29T23:17:46.187Z,89.50
2019-05-29T23:20:18.342Z,89.60
2019-05-29T23:22:50.616Z,90.00
2019-05-29T23:25:23.194Z,90.10
2019-05-29T23:27:55.196Z,90.30
2019-05-29T23:30:30.302Z,90.40
2019-05-29T23:33:01.486Z,90.60
2019-05-29T23:35:33.431Z,90.80
2019-05-29T23:38:05.271Z,90.90
2019-05-29T23:40:37.677Z,90.90
2019-05-29T23:43:09.634Z,91.10
2019-05-29T23:45:41.990Z,91.20
2019-05-29T23:48:14.435Z,91.30
2019-05-29T23:50:46.574Z,91.40
2019-05-29T23:53:18.871Z,91.50
2019-05-29T23:55:51.050Z,91.50
2019-05-29T23:58:23.310Z,91.70
